Terminal Aerodrome Forecast
Issued by NWS

Home | Current Version | Previous Version | Graphics & Text | Print | Product List | Glossary On
Versions: 1 2 3 4 5 6 7 8 9 10 11 12 13 14 15 16 17 18 19 20
000
FTUS43 KTOP 240541
TAFMHK
TAF
KMHK 240541Z 2406/2506 34015G23KT P6SM SCT011 BKN035
     FM240800 30015G23KT P6SM SCT007 BKN010
     FM241500 30016G24KT P6SM VCSH BKN008
     FM241600 31016G24KT P6SM VCSH BKN011
     FM242100 33017G27KT P6SM OVC015
     FM250000 33011KT P6SM OVC035=

USA.gov is the U.S. government's official web portal to all federal, state and local government web resources and services.